Terminal Aerodrome Forecast
Issued by NWS Pocatello, ID

Home | Current Version | Previous Version | Text Only | Print | Product List | Glossary On
Versions: 1 2 3 4 5 6 7 8 9 10 11 12 13 14
000
FTUS45 KPIH 270500
TAFBYI
TAF
KBYI 270524Z 2706/2806 17007KT P6SM VCSH BKN040
     FM271500 11009KT P6SM VCSH BKN045
     FM280000 08010KT P6SM VCSH SCT030 OVC050=

USA.gov is the U.S. government's official web portal to all federal, state and local government web resources and services.